createdAt,value
2018-02-16T07:34:25.962Z,998.60
2018-02-16T07:35:26.478Z,998.67
2018-02-16T07:36:26.943Z,998.69
2018-02-16T07:37:26.449Z,998.72
2018-02-16T07:38:27.274Z,998.80
2018-02-16T07:39:26.015Z,998.77
2018-02-16T07:40:25.824Z,998.80
2018-02-16T07:41:25.678Z,998.79
2018-02-16T07:42:27.181Z,998.85
2018-02-16T07:43:25.896Z,998.81
2018-02-16T07:44:25.913Z,998.82
2018-02-16T07:45:25.264Z,998.77
2018-02-16T07:46:25.205Z,998.76
2018-02-16T07:47:25.213Z,998.82
2018-02-16T07:48:25.177Z,998.76
2018-02-16T07:49:25.167Z,998.71
2018-02-16T07:50:25.205Z,998.78
2018-02-16T07:51:25.113Z,998.80
2018-02-16T07:52:25.061Z,998.79
2018-02-16T07:53:25.049Z,998.79
2018-02-16T07:54:25.015Z,998.76
2018-02-16T07:55:25.052Z,998.77
2018-02-16T07:56:24.991Z,998.80
2018-02-16T07:57:24.954Z,998.80
2018-02-16T07:58:24.911Z,998.80
2018-02-16T07:59:24.883Z,998.81
2018-02-16T08:00:24.949Z,998.79
2018-02-16T08:01:24.918Z,998.79
2018-02-16T08:02:24.897Z,998.79
2018-02-16T08:03:24.806Z,998.76
2018-02-16T08:26:57.250Z,998.92
2018-02-16T08:27:57.566Z,998.95
2018-02-16T08:28:57.480Z,998.97
2018-02-16T08:29:57.474Z,999.00
2018-02-16T08:30:57.403Z,999.07
2018-02-16T08:31:57.089Z,999.12
2018-02-16T08:32:57.031Z,999.14
2018-02-16T08:33:57.038Z,999.15
2018-02-16T08:34:57.012Z,999.19
2018-02-16T08:35:57.025Z,999.20
2018-02-16T08:36:56.971Z,999.30
2018-02-16T08:37:56.954Z,999.31
2018-02-16T08:38:56.948Z,999.34
2018-02-16T08:39:56.877Z,999.37
2018-02-16T08:40:56.868Z,999.43
2018-02-16T08:41:56.847Z,999.42
2018-02-16T08:42:56.825Z,999.42
2018-02-16T08:43:56.799Z,999.32
2018-02-16T08:44:56.769Z,999.31
2018-02-16T08:45:56.770Z,999.31
2018-02-16T08:46:56.718Z,999.35
2018-02-16T08:47:56.690Z,999.38
2018-02-16T08:48:56.696Z,999.41
2018-02-16T08:49:56.677Z,999.43
2018-02-16T08:50:56.624Z,999.45
2018-02-16T08:51:56.613Z,999.41
2018-02-16T08:52:56.644Z,999.42
2018-02-16T08:53:56.588Z,999.42
2018-02-16T08:54:56.581Z,999.47
2018-02-16T08:55:56.530Z,999.53
2018-02-16T08:56:56.522Z,999.50
2018-02-16T08:57:56.483Z,999.51
2018-02-16T08:58:56.454Z,999.51
2018-02-16T08:59:56.460Z,999.52
2018-02-16T09:00:56.424Z,999.54
2018-02-16T09:01:56.451Z,999.53
2018-02-16T09:02:56.388Z,999.51
2018-02-16T09:03:56.352Z,999.57
2018-02-16T09:04:56.374Z,999.60
2018-02-16T09:05:56.324Z,999.66
2018-02-16T09:06:56.574Z,999.63
2018-02-16T09:07:56.285Z,999.60
2018-02-16T09:08:56.241Z,999.60
2018-02-16T09:09:56.201Z,999.59
2018-02-16T09:10:56.220Z,999.58
2018-02-16T09:11:56.162Z,999.60
2018-02-16T09:12:56.141Z,999.65
2018-02-16T09:13:56.142Z,999.69
2018-02-16T09:14:56.081Z,999.72
2018-02-16T09:15:56.074Z,999.77
2018-02-16T09:16:56.067Z,999.80
2018-02-16T09:17:56.040Z,999.86
2018-02-16T09:18:55.991Z,999.90
2018-02-16T09:19:55.992Z,999.98
2018-02-16T09:20:55.961Z,1000.02
2018-02-16T09:21:55.977Z,1000.04
2018-02-16T09:22:55.964Z,1000.04
2018-02-16T09:23:55.900Z,1000.05
2018-02-16T09:24:55.895Z,1000.09
2018-02-16T09:25:55.896Z,1000.13
2018-02-16T09:26:55.850Z,1000.12
2018-02-16T09:27:55.847Z,1000.13
2018-02-16T09:28:55.834Z,1000.10
2018-02-16T09:29:55.763Z,1000.16
2018-02-16T09:30:55.740Z,1000.17
2018-02-16T09:31:55.737Z,1000.12
2018-02-16T09:32:55.692Z,1000.18
2018-02-16T09:33:55.691Z,1000.21
2018-02-16T09:34:55.679Z,1000.20
2018-02-16T09:35:55.678Z,1000.21
2018-02-16T09:36:55.617Z,1000.22
2018-02-16T09:37:55.584Z,1000.35
2018-02-16T09:38:55.590Z,1000.23
2018-02-16T09:39:58.255Z,1000.28
2018-02-16T09:40:55.526Z,1000.26
2018-02-16T09:41:55.551Z,1000.29
2018-02-16T09:42:55.495Z,1000.27
2018-02-16T09:43:55.538Z,1000.20
2018-02-16T09:44:55.693Z,1000.23
2018-02-16T09:45:55.439Z,1000.25
2018-02-16T09:46:55.399Z,1000.28
2018-02-16T09:47:55.412Z,1000.33
2018-02-16T09:48:55.449Z,1000.38
2018-02-16T09:49:55.348Z,1000.44
2018-02-16T09:50:56.270Z,1000.46
2018-02-16T09:51:55.312Z,1000.45
2018-02-16T09:52:55.305Z,1000.45
2018-02-16T09:53:55.306Z,1000.43
2018-02-16T09:54:55.256Z,1000.48
2018-02-16T09:55:55.267Z,1000.52
2018-02-16T09:56:55.567Z,1000.50
2018-02-16T09:57:55.192Z,1000.57
2018-02-16T09:58:55.156Z,1000.62
2018-02-16T09:59:55.130Z,1000.61
2018-02-16T10:00:55.132Z,1000.59
2018-02-16T10:01:55.076Z,1000.65
2018-02-16T10:02:55.110Z,1000.68
2018-02-16T10:03:55.052Z,1000.70
2018-02-16T10:04:55.031Z,1000.67
2018-02-16T10:05:55.015Z,1000.67
2018-02-16T10:06:54.951Z,1000.69
2018-02-16T10:07:54.949Z,1000.70
2018-02-16T10:08:54.908Z,1000.66
2018-02-16T10:09:54.905Z,1000.70
2018-02-16T10:10:54.888Z,1000.75
2018-02-16T10:11:54.896Z,1000.74
2018-02-16T10:12:54.850Z,1000.75
2018-02-16T10:13:54.847Z,1000.77
2018-02-16T10:14:54.803Z,1000.81
2018-02-16T10:15:54.793Z,1000.83
2018-02-16T10:16:54.752Z,1000.86
2018-02-16T10:17:54.726Z,1000.84
2018-02-16T10:18:54.715Z,1000.87
2018-02-16T10:19:54.718Z,1000.91
2018-02-16T10:20:54.646Z,1000.95
2018-02-16T10:21:55.259Z,1000.87
2018-02-16T10:22:54.606Z,1000.93
2018-02-16T10:23:54.734Z,1000.93
2018-02-16T10:24:54.606Z,1000.95
2018-02-16T10:25:55.618Z,1000.97
2018-02-16T10:26:54.552Z,1001.03
2018-02-16T10:27:54.488Z,1001.01
2018-02-16T10:28:54.486Z,1001.01
2018-02-16T10:29:54.565Z,1001.09
2018-02-16T10:30:54.446Z,1001.07
2018-02-16T10:31:54.403Z,1001.14
2018-02-16T10:32:54.417Z,1001.14
2018-02-16T10:33:54.477Z,1001.11
2018-02-16T10:34:54.378Z,1001.07
2018-02-16T10:35:54.351Z,1001.15
2018-02-16T10:36:54.326Z,1001.10
2018-02-16T10:37:54.635Z,1001.11
2018-02-16T10:38:54.297Z,1001.16
2018-02-16T10:39:54.272Z,1001.13
2018-02-16T10:40:54.249Z,1001.15
2018-02-16T10:41:54.221Z,1001.16
2018-02-16T10:42:54.183Z,1001.11
2018-02-16T10:43:54.193Z,1001.17
2018-02-16T10:44:54.178Z,1001.22
2018-02-16T10:45:54.120Z,1001.20
2018-02-16T10:46:54.096Z,1001.19
2018-02-16T10:47:54.067Z,1001.14
2018-02-16T10:48:54.027Z,1001.15
2018-02-16T10:49:54.037Z,1001.10
2018-02-16T10:50:54.026Z,1001.46
2018-02-16T10:51:53.992Z,1001.41
2018-02-16T10:52:53.954Z,1001.36
2018-02-16T10:53:53.953Z,1001.49
2018-02-16T10:54:53.948Z,1001.47
2018-02-16T10:55:53.894Z,1001.51
2018-02-16T10:56:53.871Z,1001.47
2018-02-16T10:57:53.894Z,1001.51
2018-02-16T10:58:53.831Z,1001.56
2018-02-16T10:59:53.887Z,1001.60
2018-02-16T11:00:53.857Z,1001.56
2018-02-16T11:01:53.806Z,1001.56
2018-02-16T11:02:53.768Z,1001.70
2018-02-16T11:03:53.740Z,1001.68
2018-02-16T11:04:53.723Z,1001.67
2018-02-16T11:05:54.042Z,1001.72
2018-02-16T11:06:53.687Z,1001.75
2018-02-16T11:07:53.727Z,1001.67
2018-02-16T11:10:15.876Z,1001.29
2018-02-16T11:11:15.075Z,1001.16
2018-02-16T11:12:15.042Z,1001.19
2018-02-16T11:13:15.264Z,1001.34
2018-02-16T11:14:15.456Z,1001.11
2018-02-16T11:15:15.561Z,1001.52
2018-02-16T11:16:14.913Z,1001.08
2018-02-16T11:17:14.910Z,1001.21
2018-02-16T11:18:14.914Z,1001.41
2018-02-16T11:19:15.008Z,1001.10
2018-02-16T11:20:18.164Z,1001.79
2018-02-16T11:21:14.853Z,1001.18
2018-02-16T11:22:14.834Z,1001.22
2018-02-16T11:23:14.817Z,1001.23
2018-02-16T11:24:14.839Z,1001.09
2018-02-16T11:25:14.781Z,1001.10
2018-02-16T11:26:14.778Z,1001.18
2018-02-16T11:27:14.764Z,1001.01
2018-02-16T11:28:14.764Z,1001.75
2018-02-16T11:29:14.770Z,1001.14
2018-02-16T11:30:14.750Z,1001.44
2018-02-16T11:31:14.724Z,1001.76
2018-02-16T11:32:14.687Z,1001.69
2018-02-16T11:33:14.634Z,1001.63
2018-02-16T11:34:14.638Z,1001.67
2018-02-16T11:35:14.678Z,1001.71
2018-02-16T11:36:14.600Z,1001.83
2018-02-16T11:37:14.592Z,1001.82
2018-02-16T11:38:14.603Z,1001.78
2018-02-16T11:39:14.553Z,1001.81
2018-02-16T11:40:14.685Z,1001.92
2018-02-16T11:41:14.533Z,1001.88
2018-02-16T11:42:14.534Z,1001.70
2018-02-16T11:43:14.499Z,1001.01
2018-02-16T11:44:14.469Z,1001.46
2018-02-16T11:45:14.473Z,1001.08
2018-02-16T11:46:14.470Z,1001.23
2018-02-16T11:47:14.439Z,1001.80
2018-02-16T11:48:14.391Z,1001.00
2018-02-16T11:49:14.380Z,1001.04
2018-02-16T11:50:14.412Z,1001.78
2018-02-16T11:51:14.364Z,1001.84
2018-02-16T11:52:14.428Z,1001.82
2018-02-16T11:53:14.424Z,1001.82
2018-02-16T11:54:14.454Z,1001.83
2018-02-16T11:55:14.428Z,1001.83
2018-02-16T11:56:16.531Z,1001.82
2018-02-16T11:57:14.327Z,1001.79
2018-02-16T11:58:14.271Z,1001.80
2018-02-16T11:59:14.300Z,1001.89
2018-02-16T12:00:14.287Z,1001.83
2018-02-16T12:01:14.278Z,1001.81
2018-02-16T12:02:14.226Z,1001.79
2018-02-16T12:03:14.215Z,1001.78
2018-02-16T12:04:14.205Z,1001.75
2018-02-16T12:05:14.219Z,1001.79
2018-02-16T12:06:14.199Z,1001.82
2018-02-16T12:07:14.171Z,1001.83
2018-02-16T12:08:14.198Z,1001.84
2018-02-16T12:09:14.142Z,1001.77
2018-02-16T12:10:14.130Z,1001.80
2018-02-16T12:11:14.243Z,1001.83
2018-02-16T12:12:14.139Z,1001.80
2018-02-16T12:13:14.105Z,1001.82
2018-02-16T12:14:14.093Z,1001.82
2018-02-16T12:15:14.108Z,1001.78
2018-02-16T12:16:15.812Z,1001.80
2018-02-16T12:17:14.072Z,1001.84
2018-02-16T12:18:14.087Z,1001.84
2018-02-16T12:19:14.039Z,1001.84
2018-02-16T12:20:14.054Z,1001.83
2018-02-16T12:21:14.053Z,1001.81
2018-02-16T12:22:14.024Z,1001.86
2018-02-16T12:23:14.125Z,1001.89
2018-02-16T12:24:14.008Z,1001.25
2018-02-16T12:25:14.014Z,1001.45
2018-02-16T12:26:14.007Z,1001.90
2018-02-16T12:27:13.958Z,1001.86
2018-02-16T12:28:13.975Z,1001.65
2018-02-16T12:29:14.063Z,1001.82
2018-02-16T12:30:13.987Z,1001.83
2018-02-16T12:31:13.948Z,1001.87
2018-02-16T12:32:13.928Z,1001.90
2018-02-16T12:33:13.952Z,1001.94
2018-02-16T12:34:13.944Z,1001.94
2018-02-16T12:35:14.085Z,1001.88
2018-02-16T12:36:13.884Z,1001.19
2018-02-16T12:37:13.902Z,1001.15
2018-02-16T12:38:13.918Z,1001.06
2018-02-16T12:39:13.912Z,1001.92
2018-02-16T12:40:13.936Z,1000.97
2018-02-16T12:41:13.861Z,1000.98
2018-02-16T12:42:13.888Z,1000.97
2018-02-16T12:43:13.828Z,1001.22
2018-02-16T12:44:13.836Z,1001.91
2018-02-16T12:45:13.838Z,1001.82
2018-02-16T12:46:13.826Z,1001.79
2018-02-16T12:47:13.822Z,1001.74
2018-02-16T12:48:13.781Z,1001.84
2018-02-16T12:49:13.781Z,1001.82
2018-02-16T12:50:13.773Z,1001.84
2018-02-16T12:51:13.769Z,1001.83
2018-02-16T12:52:13.782Z,1001.78
2018-02-16T12:53:13.764Z,1001.81
2018-02-16T12:54:13.743Z,1001.84
2018-02-16T12:55:13.730Z,1001.86
2018-02-16T12:56:13.753Z,1001.12
2018-02-16T12:57:13.720Z,1001.88
2018-02-16T12:58:14.740Z,1001.88
2018-02-16T12:59:13.709Z,1001.87
2018-02-16T13:00:13.647Z,1001.84
2018-02-16T13:01:13.649Z,1001.94
2018-02-16T13:02:13.659Z,1001.96
2018-02-16T13:03:13.650Z,1001.98
2018-02-16T13:04:13.624Z,1002.00
2018-02-16T13:05:13.640Z,1001.96
2018-02-16T13:06:13.658Z,1001.93
2018-02-16T13:07:13.597Z,1001.30
2018-02-16T13:08:13.594Z,1001.82
2018-02-16T13:09:13.622Z,1001.99
2018-02-16T13:10:13.566Z,1001.94
2018-02-16T13:11:13.583Z,1000.97
2018-02-16T13:12:13.577Z,1001.86
2018-02-16T13:13:13.538Z,1000.99
2018-02-16T13:14:13.541Z,1001.06
2018-02-16T13:15:13.545Z,1001.96
2018-02-16T13:16:13.543Z,1001.72
2018-02-16T13:17:13.491Z,1001.78
2018-02-16T13:18:13.549Z,1001.19
2018-02-16T13:19:13.471Z,1001.69
2018-02-16T13:20:13.478Z,1001.80
2018-02-16T13:21:13.470Z,1001.69
2018-02-16T13:22:13.476Z,1001.80
2018-02-16T13:23:13.431Z,1001.79
2018-02-16T13:24:13.489Z,1001.27
2018-02-16T13:25:13.441Z,1001.75
2018-02-16T13:26:13.416Z,1001.77
2018-02-16T13:27:13.412Z,1001.72
2018-02-16T13:28:13.401Z,1001.79
2018-02-16T13:29:13.376Z,1001.81
2018-02-16T13:30:13.373Z,1001.83
2018-02-16T13:31:13.357Z,1001.75
2018-02-16T13:32:13.372Z,1001.77
2018-02-16T13:33:13.345Z,1001.82
2018-02-16T13:34:13.305Z,1001.80
2018-02-16T13:35:13.314Z,1001.85
2018-02-16T13:36:13.316Z,1001.81
2018-02-16T13:37:13.347Z,1001.88
2018-02-16T13:38:13.283Z,1001.89
2018-02-16T13:39:13.288Z,1001.86
2018-02-16T13:40:13.279Z,1001.83
2018-02-16T13:41:13.231Z,1001.82
2018-02-16T13:42:13.260Z,1001.80
2018-02-16T13:43:13.262Z,1001.86
2018-02-16T13:44:13.268Z,1001.86
2018-02-16T13:45:13.252Z,1001.51
2018-02-16T13:46:13.202Z,1001.33
2018-02-16T13:47:13.176Z,1001.93
2018-02-16T13:48:13.218Z,1001.88
2018-02-16T13:49:13.185Z,1001.89
2018-02-16T13:50:13.175Z,1001.88
2018-02-16T13:51:13.162Z,1001.92
2018-02-16T13:52:13.160Z,1001.95
2018-02-16T13:53:13.102Z,1001.99
2018-02-16T13:54:13.146Z,1002.01
2018-02-16T13:55:13.112Z,1002.13
2018-02-16T13:56:13.160Z,1002.08
2018-02-16T13:57:13.098Z,1002.05
2018-02-16T13:58:13.106Z,1001.79
2018-02-16T13:59:13.088Z,1002.08
2018-02-16T14:00:13.070Z,1002.11
2018-02-16T14:01:13.098Z,1002.13
2018-02-16T14:02:14.097Z,1002.18
2018-02-16T14:03:13.059Z,1002.17
2018-02-16T14:04:13.016Z,1002.19
2018-02-16T14:05:13.062Z,1002.15
2018-02-16T14:06:13.042Z,1002.11
2018-02-16T14:07:12.986Z,1002.13
2018-02-16T14:08:13.040Z,1002.21
2018-02-16T14:09:13.007Z,1002.26
2018-02-16T14:10:12.990Z,1002.26
2018-02-16T14:11:12.944Z,1002.39
2018-02-16T14:12:14.041Z,1002.37
2018-02-16T14:13:12.958Z,1002.26
2018-02-16T14:57:37.421Z,1001.03
2018-02-16T14:58:42.640Z,1000.96
2018-02-16T15:01:25.667Z,1000.92
2018-02-16T15:02:24.545Z,1000.92
2018-02-16T15:03:24.542Z,1000.93
2018-02-16T15:04:24.748Z,1000.95
2018-02-16T15:05:24.586Z,1000.90
2018-02-16T15:06:24.436Z,1000.91
2018-02-16T15:07:24.440Z,1000.89
2018-02-16T15:08:24.388Z,1000.87
2018-02-16T15:09:24.477Z,1000.88
2018-02-16T15:10:24.426Z,1000.90
2018-02-16T15:11:24.321Z,1000.92
2018-02-16T15:12:24.323Z,1000.90
2018-02-16T15:13:24.404Z,1000.89
2018-02-16T15:14:24.280Z,1000.95
2018-02-16T15:15:24.281Z,1000.95
2018-02-16T15:16:24.384Z,1000.95
2018-02-16T15:17:24.232Z,1000.92
2018-02-16T15:18:24.198Z,1000.92
2018-02-16T15:19:24.180Z,1000.84
2018-02-16T15:20:24.167Z,1000.86
2018-02-16T15:21:24.156Z,1000.91
2018-02-16T15:22:24.123Z,1000.92
2018-02-16T15:23:24.103Z,1000.91
2018-02-16T15:24:24.297Z,1000.89
2018-02-16T15:25:24.079Z,1000.90
2018-02-16T15:26:24.040Z,1000.88
2018-02-16T15:27:24.026Z,1000.91
2018-02-16T15:28:23.998Z,1000.94
2018-02-16T15:29:23.972Z,1000.91
2018-02-16T15:30:24.364Z,1000.87
2018-02-16T15:31:23.941Z,1000.89
2018-02-16T15:32:23.893Z,1000.87
2018-02-16T15:33:23.890Z,1000.87
2018-02-16T15:34:23.899Z,1000.89
2018-02-16T15:35:23.850Z,1000.90
2018-02-16T15:36:23.897Z,1000.89
2018-02-16T15:37:24.759Z,1000.88
2018-02-16T15:38:23.860Z,1000.87
2018-02-16T15:39:23.872Z,1000.87
2018-02-16T15:40:23.736Z,1000.88
2018-02-16T15:41:23.711Z,1000.83
2018-02-16T15:42:23.694Z,1000.83
2018-02-16T15:43:23.674Z,1000.84
2018-02-16T15:45:55.655Z,1000.84
2018-02-16T15:46:55.304Z,1000.85
2018-02-16T15:47:55.806Z,1000.82
2018-02-16T15:48:55.291Z,1000.84
2018-02-16T15:49:55.705Z,1000.86
2018-02-16T15:50:55.485Z,1000.86
2018-02-16T15:51:55.194Z,1000.87
2018-02-16T15:52:55.160Z,1000.88
2018-02-16T15:53:55.183Z,1000.85
2018-02-16T15:54:55.147Z,1000.85
2018-02-16T15:55:55.110Z,1000.87
2018-02-16T15:56:55.124Z,1000.87
2018-02-16T15:57:55.071Z,1000.85
2018-02-16T15:58:55.040Z,1000.90
2018-02-16T15:59:55.032Z,1000.89
2018-02-16T16:00:55.029Z,1000.90
2018-02-16T16:01:54.997Z,1000.89
2018-02-16T16:02:54.977Z,1000.89
2018-02-16T16:03:54.944Z,1000.88
2018-02-16T16:04:54.922Z,1000.91
2018-02-16T16:05:54.919Z,1000.91
2018-02-16T16:06:54.929Z,1000.95
2018-02-16T16:07:54.962Z,1000.93
2018-02-16T16:08:54.824Z,1000.91
2018-02-16T16:09:54.847Z,1000.91
2018-02-16T16:10:54.813Z,1000.93
2018-02-16T16:11:54.797Z,1000.96
2018-02-16T16:12:54.768Z,1000.96
2018-02-16T16:13:54.720Z,1000.93
2018-02-16T16:14:54.738Z,1000.93
2018-02-16T16:15:54.707Z,1000.91
2018-02-16T16:16:54.692Z,1000.91
2018-02-16T16:17:54.651Z,1000.89
2018-02-16T16:18:54.931Z,1000.89
2018-02-16T16:19:55.284Z,1000.90
2018-02-16T16:20:54.561Z,1000.92
2018-02-16T16:21:54.536Z,1000.94
2018-02-16T16:22:54.530Z,1000.94
2018-02-16T16:23:54.574Z,1000.96
2018-02-16T16:24:54.517Z,1000.97
2018-02-16T16:25:54.595Z,1000.99
2018-02-16T16:26:54.470Z,1000.98
2018-02-16T16:27:54.457Z,1000.98
2018-02-16T16:28:54.403Z,1000.98
2018-02-16T16:29:54.473Z,1001.00
2018-02-16T16:30:54.358Z,1000.98
2018-02-16T16:31:54.573Z,1001.03
2018-02-16T16:32:54.370Z,1001.03
2018-02-16T16:33:54.291Z,1001.09
2018-02-16T16:34:54.257Z,1001.06
2018-02-16T16:35:54.299Z,1001.05
2018-02-16T16:36:54.228Z,1001.06
2018-02-16T16:37:54.219Z,1001.08
2018-02-16T16:38:54.175Z,1001.09
2018-02-16T16:39:54.173Z,1001.12
2018-02-16T16:40:54.142Z,1001.13
2018-02-16T16:41:54.088Z,1001.16
2018-02-16T16:42:54.086Z,1001.18
2018-02-16T16:43:54.093Z,1001.15
2018-02-16T16:44:54.042Z,1001.20
2018-02-16T16:45:54.015Z,1001.26
2018-02-16T16:46:54.010Z,1001.24
2018-02-16T16:47:53.975Z,1001.28
2018-02-16T16:48:53.943Z,1001.23
2018-02-16T16:49:53.939Z,1001.33
2018-02-16T16:50:53.901Z,1001.34
2018-02-16T16:51:53.897Z,1001.33
2018-02-16T16:52:53.869Z,1001.35
2018-02-16T16:53:53.870Z,1001.38
2018-02-16T16:54:53.835Z,1001.42
2018-02-16T16:55:53.822Z,1001.49
2018-02-16T16:56:53.776Z,1001.47
2018-02-16T16:57:53.748Z,1001.50
2018-02-16T16:58:53.741Z,1001.55
2018-02-16T16:59:53.684Z,1001.57
2018-02-16T17:00:53.711Z,1001.56
2018-02-16T17:01:53.680Z,1001.57
2018-02-16T17:02:53.635Z,1001.53
2018-02-16T17:03:53.584Z,1001.56
2018-02-16T17:04:53.603Z,1001.56
2018-02-16T17:05:53.586Z,1001.56
2018-02-16T17:06:53.571Z,1001.57
2018-02-16T17:07:53.544Z,1001.58
2018-02-16T17:08:53.543Z,1001.58
2018-02-16T17:09:54.336Z,1001.56
2018-02-16T17:10:53.448Z,1001.59
2018-02-16T17:11:54.360Z,1001.58
2018-02-16T17:12:53.398Z,1001.57
2018-02-16T17:13:53.418Z,1001.59
2018-02-16T17:14:53.467Z,1001.59
2018-02-16T17:15:53.351Z,1001.61
2018-02-16T17:16:53.345Z,1001.60
2018-02-16T17:17:53.314Z,1001.57
2018-02-16T17:18:53.283Z,1001.61
2018-02-16T17:19:53.231Z,1001.61
2018-02-16T17:20:53.223Z,1001.64
2018-02-16T17:21:53.177Z,1001.63
2018-02-16T17:22:54.216Z,1001.63
2018-02-16T17:23:53.132Z,1001.65
2018-02-16T17:24:53.217Z,1001.64
2018-02-16T17:25:53.103Z,1001.68
2018-02-16T17:26:53.828Z,1001.69
2018-02-16T17:27:53.118Z,1001.69
2018-02-16T17:28:53.028Z,1001.76
2018-02-16T17:29:53.041Z,1001.74
2018-02-16T17:30:52.970Z,1001.76
2018-02-16T17:31:52.973Z,1001.76
2018-02-16T17:32:53.702Z,1001.78
2018-02-16T17:33:53.117Z,1001.84
2018-02-16T17:34:52.865Z,1001.81
2018-02-16T17:35:52.868Z,1001.87
2018-02-16T17:36:52.815Z,1001.86
2018-02-16T17:37:52.819Z,1001.84
2018-02-16T17:38:52.822Z,1001.88
2018-02-16T17:39:52.746Z,1001.85
2018-02-16T17:40:52.736Z,1001.86
2018-02-16T17:41:52.743Z,1001.90
2018-02-16T17:42:52.695Z,1001.90
2018-02-16T17:43:52.762Z,1001.90
2018-02-16T17:44:52.629Z,1001.89
2018-02-16T17:45:53.723Z,1001.90
2018-02-16T17:46:52.838Z,1001.90
2018-02-16T17:47:54.324Z,1001.91
2018-02-16T17:48:52.564Z,1001.96
2018-02-16T17:49:52.575Z,1002.00
2018-02-16T17:50:52.511Z,1001.98
2018-02-16T17:51:52.691Z,1002.00
2018-02-16T17:52:52.481Z,1001.98
2018-02-16T17:53:52.403Z,1002.04
2018-02-16T17:54:52.405Z,1002.05
2018-02-16T17:55:52.649Z,1002.06
2018-02-16T17:56:52.461Z,1002.11
2018-02-16T17:57:52.912Z,1002.09
2018-02-16T17:58:53.798Z,1002.12
2018-02-16T17:59:52.254Z,1002.12
2018-02-16T18:00:52.246Z,1002.14
2018-02-16T18:01:52.319Z,1002.15
2018-02-16T18:02:52.255Z,1002.15
2018-02-16T18:03:52.154Z,1002.19
2018-02-16T18:04:52.158Z,1002.18
2018-02-16T18:05:52.142Z,1002.21
2018-02-16T18:06:52.127Z,1002.20
2018-02-16T18:07:52.098Z,1002.19
2018-02-16T18:08:52.044Z,1002.21
2018-02-16T18:09:52.007Z,1002.19
2018-02-16T18:10:52.253Z,1002.21
2018-02-16T18:11:52.011Z,1002.24
2018-02-16T18:12:51.945Z,1002.26
2018-02-16T18:13:51.912Z,1002.24
2018-02-16T18:14:51.942Z,1002.24
2018-02-16T18:15:51.864Z,1002.24
2018-02-16T18:16:51.890Z,1002.24
2018-02-16T18:17:51.856Z,1002.27
2018-02-16T18:18:51.787Z,1002.25
2018-02-16T18:19:51.797Z,1002.22
2018-02-16T18:20:51.790Z,1002.28
2018-02-16T18:21:51.790Z,1002.22
2018-02-16T18:22:51.815Z,1002.25
2018-02-16T18:23:52.921Z,1002.22
2018-02-16T18:24:51.691Z,1002.21
2018-02-16T18:25:51.809Z,1002.25
2018-02-16T18:26:51.719Z,1002.24
2018-02-16T18:27:51.695Z,1002.24
2018-02-16T18:28:51.854Z,1002.27
2018-02-16T18:29:53.344Z,1002.29
2018-02-16T18:30:51.601Z,1002.27
2018-02-16T18:31:51.492Z,1002.19
2018-02-16T18:32:51.445Z,1002.24
2018-02-16T18:33:51.436Z,1002.24
2018-02-16T18:34:51.433Z,1002.21
2018-02-16T18:35:51.375Z,1002.24
2018-02-16T18:36:51.351Z,1002.23
2018-02-16T18:37:51.362Z,1002.22
2018-02-16T18:38:51.344Z,1002.21
2018-02-16T18:39:51.309Z,1002.22
2018-02-16T18:40:51.310Z,1002.20
2018-02-16T18:41:51.286Z,1002.19
2018-02-16T18:42:51.251Z,1002.20
2018-02-16T18:43:51.190Z,1002.22
2018-02-16T18:44:51.191Z,1002.23
2018-02-16T18:45:51.184Z,1002.19
2018-02-16T18:46:51.114Z,1002.21
2018-02-16T18:47:51.139Z,1002.18
2018-02-16T18:48:51.112Z,1002.18
2018-02-16T18:49:51.047Z,1002.12
2018-02-16T18:50:51.034Z,1002.13
2018-02-16T18:51:51.122Z,1002.12
2018-02-16T18:52:52.895Z,1002.09
2018-02-16T18:53:50.960Z,1002.12
2018-02-16T18:57:12.961Z,1002.12
2018-02-16T18:57:52.953Z,1002.09
2018-02-16T18:58:53.140Z,1002.08
2018-02-16T18:59:53.880Z,1002.07
2018-02-16T19:00:53.601Z,1002.05
2018-02-16T19:01:53.856Z,1002.06
2018-02-16T19:02:52.762Z,1002.02
2018-02-16T19:03:53.799Z,1002.04
2018-02-16T19:04:53.605Z,1002.02
2018-02-16T19:05:52.569Z,1002.03
2018-02-16T19:06:53.614Z,1002.00
2018-02-16T19:07:53.620Z,1001.97
2018-02-16T19:08:52.635Z,1001.96
2018-02-16T19:09:53.086Z,1002.00
2018-02-16T19:10:52.758Z,1001.99
2018-02-16T19:11:52.493Z,1001.97
2018-02-16T19:12:51.739Z,1001.97
2018-02-16T19:13:51.900Z,1001.93
2018-02-16T19:14:51.926Z,1001.94
2018-02-16T19:15:51.926Z,1001.89
2018-02-16T19:16:51.613Z,1001.89
2018-02-16T19:17:51.562Z,1001.88
2018-02-16T19:18:51.683Z,1001.85
2018-02-16T19:19:51.671Z,1001.82
2018-02-16T19:20:55.647Z,1001.81
2018-02-16T19:21:51.667Z,1001.81
2018-02-16T19:22:53.402Z,1001.77
2018-02-16T19:23:51.561Z,1001.79
2018-02-16T19:24:51.561Z,1001.76
2018-02-16T19:25:52.064Z,1001.79
2018-02-16T19:26:52.137Z,1001.80
2018-02-16T19:27:52.107Z,1001.75
2018-02-16T19:28:51.412Z,1001.78
2018-02-16T19:29:51.550Z,1001.68
2018-02-16T19:30:51.511Z,1001.67
2018-02-16T19:31:51.502Z,1001.65
2018-02-16T19:32:51.325Z,1001.68
2018-02-16T19:33:51.187Z,1001.64
2018-02-16T19:34:51.362Z,1001.61
2018-02-16T19:35:51.329Z,1001.59
2018-02-16T19:36:52.638Z,1001.58
2018-02-16T19:37:51.317Z,1001.56
2018-02-16T19:38:51.271Z,1001.54
2018-02-16T19:39:51.307Z,1001.61
2018-02-16T19:40:51.409Z,1001.60
2018-02-16T19:41:51.203Z,1001.62
2018-02-16T19:42:51.250Z,1001.64
2018-02-16T19:43:51.244Z,1001.62
2018-02-16T19:44:51.126Z,1001.67
2018-02-16T19:45:51.354Z,1001.64
2018-02-16T19:46:50.935Z,1001.65
2018-02-16T19:47:51.664Z,1001.68
2018-02-16T19:48:51.119Z,1001.69
2018-02-16T19:49:50.972Z,1001.71
2018-02-16T19:50:51.342Z,1001.68
2018-02-16T19:51:50.883Z,1001.73
2018-02-16T19:52:50.862Z,1001.73
2018-02-16T19:53:51.335Z,1001.77
2018-02-16T19:54:51.058Z,1001.77
2018-02-16T19:55:50.968Z,1001.77
2018-02-16T19:56:51.177Z,1001.79
2018-02-16T19:59:11.639Z,1001.82
2018-02-16T20:00:11.115Z,1001.83
2018-02-16T20:02:04.394Z,1001.84
2018-02-16T20:03:03.803Z,1001.86
2018-02-16T20:04:04.083Z,1001.85
2018-02-16T20:05:04.027Z,1001.84
2018-02-16T20:06:03.641Z,1001.85
2018-02-16T20:07:03.667Z,1001.85
2018-02-16T20:08:03.567Z,1001.87
2018-02-16T20:09:03.521Z,1001.86
2018-02-16T20:10:03.522Z,1001.83
2018-02-16T20:11:03.552Z,1001.80
2018-02-16T20:12:03.593Z,1001.81
2018-02-16T20:13:03.445Z,1001.80
2018-02-16T20:14:03.403Z,1001.78
2018-02-16T20:15:03.439Z,1001.80
2018-02-16T20:16:03.472Z,1001.81
2018-02-16T20:17:03.368Z,1001.81
2018-02-16T20:18:04.041Z,1001.76
2018-02-16T20:19:03.344Z,1001.75
2018-02-16T20:20:03.303Z,1001.70
2018-02-16T20:21:03.326Z,1001.68
2018-02-16T20:22:03.223Z,1001.68
2018-02-16T20:23:03.209Z,1001.71
2018-02-16T20:24:03.144Z,1001.71
2018-02-16T20:25:03.154Z,1001.73
2018-02-16T20:26:03.557Z,1001.70
2018-02-16T20:27:03.301Z,1001.72
2018-02-16T20:28:03.247Z,1001.76
2018-02-16T20:29:03.119Z,1001.76
2018-02-16T20:30:03.087Z,1001.80
2018-02-16T20:31:03.037Z,1001.78
2018-02-16T20:32:03.007Z,1001.82
2018-02-16T20:33:02.980Z,1001.86
2018-02-16T20:34:03.002Z,1001.88
2018-02-16T20:35:03.192Z,1001.90
2018-02-16T20:36:02.922Z,1001.87
2018-02-16T20:37:02.847Z,1001.90
2018-02-16T20:38:03.116Z,1001.95
2018-02-16T20:39:02.944Z,1001.93
2018-02-16T20:40:02.808Z,1001.96
2018-02-16T20:41:02.741Z,1001.94
2018-02-16T20:42:02.849Z,1001.96
2018-02-16T20:43:02.735Z,1001.95
2018-02-16T20:44:02.676Z,1001.89
2018-02-16T20:45:02.690Z,1001.91
2018-02-16T20:46:02.775Z,1001.91
2018-02-16T20:47:02.864Z,1001.89
2018-02-16T20:48:02.538Z,1001.88
2018-02-16T20:49:02.503Z,1001.88
2018-02-16T20:50:02.551Z,1001.89
2018-02-16T20:51:02.492Z,1001.86
2018-02-16T20:52:02.516Z,1001.89
2018-02-16T20:53:03.652Z,1001.93
2018-02-16T20:54:02.503Z,1001.94
2018-02-16T20:55:02.533Z,1001.94
2018-02-16T20:56:02.570Z,1001.95
2018-02-16T20:57:02.577Z,1001.94